Menu Close Menu
Station Historical Data
Daily Summary for January 8, 2017 Units:  Both    English   Metric
« Previous Day
Next Day »
Daily Weekly Monthly Yearly Custom
  High: Low: Average:
Temperature: 30.9 °F /  -0.6 °C 15.7 °F /  -9.1 °C 22.8 °F /  -5.1 °C
Dew Point: 13.3 °F /  -10.4 °C 6.7 °F /  -14.1 °C 8.9 °F /  -12.8 °C
Humidity: 68% 38% 56%
Wind Speed: 10.4mph /  16.7km/h - 10.4mph /  16.7km/h
Wind Gust: 10.4mph /  16.7km/h - -
Wind- - ESE
Pressure: 30.82 in /  1043.6 hPa 30.64 in /  1037.5 hPa -
Precipitation: 0.00 in /  0 mm    
Historical Graphs
 
 
Tabular Data for January 8, 2017
Time Temperature Dew Point Pressure Wind Wind Speed Wind Gust Humidity Rainfall Rate (Hourly) solar Conditions
00:04 18.8 °F /  -7.3 °C 7.9 °F /  -13.4 °C 30.64in /  1037.5hPa NW 10.4mph /  16.7km/h   62% 0.00in /  0mm 0.0 W/m2 CLR
00:09 18.6 °F /  -7.4 °C 7.7 °F /  -13.5 °C 30.64in /  1037.5hPa NW 10.4mph /  16.7km/h   62% 0.00in /  0mm 0.0 W/m2 CLR
00:14 18.5 °F /  -7.5 °C 7.6 °F /  -13.6 °C 30.64in /  1037.5hPa East 10.4mph /  16.7km/h 10.4mph /  16.7km/h 62% 0.00in /  0mm 0.0 W/m2 CLR
00:19 18.5 °F /  -7.5 °C 8.0 °F /  -13.3 °C 30.64in /  1037.5hPa SE 10.4mph /  16.7km/h 10.4mph /  16.7km/h 63% 0.00in /  0mm 0.0 W/m2 CLR
00:29 18.3 °F /  -7.6 °C 7.8 °F /  -13.4 °C 30.64in /  1037.5hPa ENE 10.4mph /  16.7km/h 10.4mph /  16.7km/h 63% 0.00in /  0mm 0.0 W/m2 CLR
00:35 18.2 °F /  -7.7 °C 7.7 °F /  -13.5 °C 30.65in /  1037.8hPa NNE 10.4mph /  16.7km/h 10.4mph /  16.7km/h 63% 0.00in /  0mm 0.0 W/m2 CLR
00:36 18.1 °F /  -7.7 °C 7.6 °F /  -13.6 °C 30.64in /  1037.5hPa East 10.4mph /  16.7km/h 10.4mph /  16.7km/h 63% 0.00in /  0mm 0.0 W/m2 CLR
00:41 18.1 °F /  -7.7 °C 8.0 °F /  -13.3 °C 30.65in /  1037.8hPa WNW 10.4mph /  16.7km/h   64% 0.00in /  0mm 0.0 W/m2 CLR
00:46 18.0 °F /  -7.8 °C 7.9 °F /  -13.4 °C 30.65in /  1037.8hPa WNW 10.4mph /  16.7km/h   64% 0.00in /  0mm 0.0 W/m2 CLR
00:51 18.0 °F /  -7.8 °C 7.9 °F /  -13.4 °C 30.65in /  1037.8hPa SE 10.4mph /  16.7km/h   64% 0.00in /  0mm 0.0 W/m2 CLR
00:56 17.9 °F /  -7.8 °C 8.1 °F /  -13.3 °C 30.65in /  1037.8hPa SSE 10.4mph /  16.7km/h 10.4mph /  16.7km/h 65% 0.00in /  0mm 0.0 W/m2 CLR
01:01 17.9 °F /  -7.8 °C 7.8 °F /  -13.4 °C 30.65in /  1037.8hPa ENE 10.4mph /  16.7km/h 10.4mph /  16.7km/h 64% 0.00in /  0mm 0.0 W/m2
01:06 17.9 °F /  -7.8 °C 7.8 °F /  -13.4 °C 30.65in /  1037.8hPa East 10.4mph /  16.7km/h 10.4mph /  16.7km/h 64% 0.00in /  0mm 0.0 W/m2
01:11 17.8 °F /  -7.9 °C 7.7 °F /  -13.5 °C 30.65in /  1037.8hPa East 10.4mph /  16.7km/h 10.4mph /  16.7km/h 64% 0.00in /  0mm 0.0 W/m2
01:17 17.6 °F /  -8 °C 7.8 °F /  -13.4 °C 30.65in /  1037.8hPa SW 10.4mph /  16.7km/h 10.4mph /  16.7km/h 65% 0.00in /  0mm 0.0 W/m2
01:22 17.6 °F /  -8 °C 7.5 °F /  -13.6 °C 30.65in /  1037.8hPa West 10.4mph /  16.7km/h 10.4mph /  16.7km/h 64% 0.00in /  0mm 0.0 W/m2
01:27 17.5 °F /  -8.1 °C 7.4 °F /  -13.7 °C 30.65in /  1037.8hPa East 10.4mph /  16.7km/h   64% 0.00in /  0mm 0.0 W/m2
01:32 17.5 °F /  -8.1 °C 7.7 °F /  -13.5 °C 30.66in /  1038.1hPa NNE 10.4mph /  16.7km/h   65% 0.00in /  0mm 0.0 W/m2
01:37 17.4 °F /  -8.1 °C 8.0 °F /  -13.3 °C 30.66in /  1038.1hPa NW 10.4mph /  16.7km/h   66% 0.00in /  0mm 0.0 W/m2
01:42 17.3 °F /  -8.2 °C 7.5 °F /  -13.6 °C 30.66in /  1038.1hPa SSW 10.4mph /  16.7km/h 10.4mph /  16.7km/h 65% 0.00in /  0mm 0.0 W/m2
01:47 17.2 °F /  -8.2 °C 8.1 °F /  -13.3 °C 30.66in /  1038.1hPa NW 10.4mph /  16.7km/h   67% 0.00in /  0mm 0.0 W/m2
01:57 17.1 °F /  -8.3 °C 7.7 °F /  -13.5 °C 30.66in /  1038.1hPa NE 10.4mph /  16.7km/h 10.4mph /  16.7km/h 66% 0.00in /  0mm 0.0 W/m2
02:02 17.1 °F /  -8.3 °C 7.7 °F /  -13.5 °C 30.66in /  1038.1hPa West 10.4mph /  16.7km/h 10.4mph /  16.7km/h 66% 0.00in /  0mm 0.0 W/m2
02:07 17.0 °F /  -8.3 °C 7.9 °F /  -13.4 °C 30.66in /  1038.1hPa NW 10.4mph /  16.7km/h   67% 0.00in /  0mm 0.0 W/m2
02:12 17.0 °F /  -8.3 °C 7.6 °F /  -13.6 °C 30.66in /  1038.1hPa East 10.4mph /  16.7km/h 10.4mph /  16.7km/h 66% 0.00in /  0mm 0.0 W/m2
02:17 16.9 °F /  -8.4 °C 7.5 °F /  -13.6 °C 30.66in /  1038.1hPa WSW 10.4mph /  16.7km/h 10.4mph /  16.7km/h 66% 0.00in /  0mm 0.0 W/m2
02:22 16.9 °F /  -8.4 °C 7.5 °F /  -13.6 °C 30.66in /  1038.1hPa NW 10.4mph /  16.7km/h   66% 0.00in /  0mm 0.0 W/m2
02:27 16.8 °F /  -8.4 °C 7.7 °F /  -13.5 °C 30.67in /  1038.5hPa SSE 10.4mph /  16.7km/h 10.4mph /  16.7km/h 67% 0.00in /  0mm 0.0 W/m2
02:32 16.8 °F /  -8.4 °C 7.7 °F /  -13.5 °C 30.67in /  1038.5hPa ESE 10.4mph /  16.7km/h 10.4mph /  16.7km/h 67% 0.00in /  0mm 0.0 W/m2
02:37 16.8 °F /  -8.4 °C 7.7 °F /  -13.5 °C 30.67in /  1038.5hPa SE 10.4mph /  16.7km/h 10.4mph /  16.7km/h 67% 0.00in /  0mm 0.0 W/m2
02:42 16.7 °F /  -8.5 °C 7.6 °F /  -13.6 °C 30.68in /  1038.8hPa SE 10.4mph /  16.7km/h 10.4mph /  16.7km/h 67% 0.00in /  0mm 0.0 W/m2
02:48 16.7 °F /  -8.5 °C 7.6 °F /  -13.6 °C 30.68in /  1038.8hPa NE 10.4mph /  16.7km/h 10.4mph /  16.7km/h 67% 0.00in /  0mm 0.0 W/m2
02:53 16.7 °F /  -8.5 °C 8.0 °F /  -13.3 °C 30.68in /  1038.8hPa WNW 10.4mph /  16.7km/h   68% 0.00in /  0mm 0.0 W/m2
02:58 16.3 °F /  -8.7 °C 7.3 °F /  -13.7 °C 30.68in /  1038.8hPa ESE 10.4mph /  16.7km/h 10.4mph /  16.7km/h 67% 0.00in /  0mm 0.0 W/m2
03:03 15.7 °F /  -9.1 °C 6.7 °F /  -14.1 °C 30.67in /  1038.5hPa ESE 10.4mph /  16.7km/h   67% 0.00in /  0mm 0.0 W/m2
03:08 15.7 °F /  -9.1 °C 6.7 °F /  -14.1 °C 30.67in /  1038.5hPa ESE 10.4mph /  16.7km/h   67% 0.00in /  0mm 0.0 W/m2
03:13 15.7 °F /  -9.1 °C 6.7 °F /  -14.1 °C 30.68in /  1038.8hPa North 10.4mph /  16.7km/h   67% 0.00in /  0mm 0.0 W/m2
03:18 15.7 °F /  -9.1 °C 6.7 °F /  -14.1 °C 30.67in /  1038.5hPa North 10.4mph /  16.7km/h   67% 0.00in /  0mm 0.0 W/m2
03:23 15.7 °F /  -9.1 °C 6.7 °F /  -14.1 °C 30.67in /  1038.5hPa North 10.4mph /  16.7km/h   67% 0.00in /  0mm 0.0 W/m2
03:28 15.7 °F /  -9.1 °C 6.7 °F /  -14.1 °C 30.67in /  1038.5hPa North 10.4mph /  16.7km/h   67% 0.00in /  0mm 0.0 W/m2
03:33 15.7 °F /  -9.1 °C 6.7 °F /  -14.1 °C 30.67in /  1038.5hPa North 10.4mph /  16.7km/h   67% 0.00in /  0mm 0.0 W/m2
03:44 15.7 °F /  -9.1 °C 6.7 °F /  -14.1 °C 30.68in /  1038.8hPa North 10.4mph /  16.7km/h   67% 0.00in /  0mm 0.0 W/m2
03:49 15.7 °F /  -9.1 °C 6.7 °F /  -14.1 °C 30.68in /  1038.8hPa North 10.4mph /  16.7km/h   67% 0.00in /  0mm 0.0 W/m2
03:54 15.7 °F /  -9.1 °C 6.7 °F /  -14.1 °C 30.68in /  1038.8hPa North 10.4mph /  16.7km/h   67% 0.00in /  0mm 0.0 W/m2
03:59 15.7 °F /  -9.1 °C 6.7 °F /  -14.1 °C 30.67in /  1038.5hPa North 10.4mph /  16.7km/h   67% 0.00in /  0mm 0.0 W/m2
04:04 15.7 °F /  -9.1 °C 6.7 °F /  -14.1 °C 30.68in /  1038.8hPa North 10.4mph /  16.7km/h   67% 0.00in /  0mm 0.0 W/m2
04:09 15.7 °F /  -9.1 °C 6.7 °F /  -14.1 °C 30.67in /  1038.5hPa North 10.4mph /  16.7km/h   67% 0.00in /  0mm 0.0 W/m2
04:14 15.7 °F /  -9.1 °C 6.7 °F /  -14.1 °C 30.68in /  1038.8hPa North 10.4mph /  16.7km/h   67% 0.00in /  0mm 0.0 W/m2
04:19 15.7 °F /  -9.1 °C 6.7 °F /  -14.1 °C 30.68in /  1038.8hPa North 10.4mph /  16.7km/h   67% 0.00in /  0mm 0.0 W/m2
04:24 15.7 °F /  -9.1 °C 6.7 °F /  -14.1 °C 30.67in /  1038.5hPa North 10.4mph /  16.7km/h   67% 0.00in /  0mm 0.0 W/m2
04:29 15.7 °F /  -9.1 °C 6.7 °F /  -14.1 °C 30.68in /  1038.8hPa North 10.4mph /  16.7km/h   67% 0.00in /  0mm 0.0 W/m2
04:34 15.7 °F /  -9.1 °C 6.7 °F /  -14.1 °C 30.68in /  1038.8hPa North 10.4mph /  16.7km/h   67% 0.00in /  0mm 0.0 W/m2
04:39 15.7 °F /  -9.1 °C 6.7 °F /  -14.1 °C 30.68in /  1038.8hPa North 10.4mph /  16.7km/h   67% 0.00in /  0mm 0.0 W/m2
04:44 15.7 °F /  -9.1 °C 6.7 °F /  -14.1 °C 30.68in /  1038.8hPa North 10.4mph /  16.7km/h   67% 0.00in /  0mm 0.0 W/m2
04:49 15.7 °F /  -9.1 °C 6.7 °F /  -14.1 °C 30.68in /  1038.8hPa North 10.4mph /  16.7km/h   67% 0.00in /  0mm 0.0 W/m2
04:54 15.7 °F /  -9.1 °C 6.7 °F /  -14.1 °C 30.68in /  1038.8hPa North 10.4mph /  16.7km/h   67% 0.00in /  0mm 0.0 W/m2
04:59 15.7 °F /  -9.1 °C 6.7 °F /  -14.1 °C 30.68in /  1038.8hPa North 10.4mph /  16.7km/h   67% 0.00in /  0mm 0.0 W/m2
05:00 15.7 °F /  -9.1 °C 6.7 °F /  -14.1 °C 30.68in /  1038.8hPa North 10.4mph /  16.7km/h   67% 0.00in /  0mm 0.0 W/m2
05:05 15.7 °F /  -9.1 °C 6.7 °F /  -14.1 °C 30.68in /  1038.8hPa North 10.4mph /  16.7km/h   67% 0.00in /  0mm 0.0 W/m2
05:10 15.7 °F /  -9.1 °C 6.7 °F /  -14.1 °C 30.69in /  1039.2hPa North 10.4mph /  16.7km/h   67% 0.00in /  0mm 0.0 W/m2
05:15 15.7 °F /  -9.1 °C 6.7 °F /  -14.1 °C 30.69in /  1039.2hPa North 10.4mph /  16.7km/h   67% 0.00in /  0mm 0.0 W/m2
05:20 15.7 °F /  -9.1 °C 6.7 °F /  -14.1 °C 30.68in /  1038.8hPa North 10.4mph /  16.7km/h   67% 0.00in /  0mm 0.0 W/m2
05:30 15.7 °F /  -9.1 °C 6.7 °F /  -14.1 °C 30.69in /  1039.2hPa North 10.4mph /  16.7km/h   67% 0.00in /  0mm 0.0 W/m2
05:35 15.7 °F /  -9.1 °C 6.7 °F /  -14.1 °C 30.69in /  1039.2hPa North 10.4mph /  16.7km/h   67% 0.00in /  0mm 0.0 W/m2
05:40 15.7 °F /  -9.1 °C 6.7 °F /  -14.1 °C 30.70in /  1039.5hPa North 10.4mph /  16.7km/h   67% 0.00in /  0mm 0.0 W/m2
05:45 15.7 °F /  -9.1 °C 6.7 °F /  -14.1 °C 30.69in /  1039.2hPa North 10.4mph /  16.7km/h   67% 0.00in /  0mm 0.0 W/m2
05:50 15.7 °F /  -9.1 °C 6.7 °F /  -14.1 °C 30.70in /  1039.5hPa North 10.4mph /  16.7km/h   67% 0.00in /  0mm 0.0 W/m2
05:56 15.7 °F /  -9.1 °C 6.7 °F /  -14.1 °C 30.70in /  1039.5hPa North 10.4mph /  16.7km/h   67% 0.00in /  0mm 0.0 W/m2
06:01 15.7 °F /  -9.1 °C 6.7 °F /  -14.1 °C 30.70in /  1039.5hPa North 10.4mph /  16.7km/h   67% 0.00in /  0mm 0.0 W/m2
06:06 15.7 °F /  -9.1 °C 6.7 °F /  -14.1 °C 30.70in /  1039.5hPa North 10.4mph /  16.7km/h   67% 0.00in /  0mm 0.0 W/m2
06:11 15.7 °F /  -9.1 °C 6.7 °F /  -14.1 °C 30.70in /  1039.5hPa North 10.4mph /  16.7km/h   67% 0.00in /  0mm 0.0 W/m2
06:16 15.7 °F /  -9.1 °C 6.7 °F /  -14.1 °C 30.70in /  1039.5hPa North 10.4mph /  16.7km/h   67% 0.00in /  0mm 0.0 W/m2
06:21 15.7 °F /  -9.1 °C 6.7 °F /  -14.1 °C 30.70in /  1039.5hPa North 10.4mph /  16.7km/h   67% 0.00in /  0mm 0.0 W/m2
06:26 15.7 °F /  -9.1 °C 6.7 °F /  -14.1 °C 30.70in /  1039.5hPa North 10.4mph /  16.7km/h   67% 0.00in /  0mm 0.0 W/m2
06:31 15.7 °F /  -9.1 °C 6.7 °F /  -14.1 °C 30.70in /  1039.5hPa North 10.4mph /  16.7km/h   67% 0.00in /  0mm 0.0 W/m2
06:36 15.7 °F /  -9.1 °C 6.7 °F /  -14.1 °C 30.70in /  1039.5hPa North 10.4mph /  16.7km/h   67% 0.00in /  0mm 0.0 W/m2
06:41 15.7 °F /  -9.1 °C 6.7 °F /  -14.1 °C 30.71in /  1039.8hPa North 10.4mph /  16.7km/h   67% 0.00in /  0mm 0.0 W/m2
06:46 15.7 °F /  -9.1 °C 6.7 °F /  -14.1 °C 30.71in /  1039.8hPa North 10.4mph /  16.7km/h   67% 0.00in /  0mm 0.0 W/m2
06:51 15.7 °F /  -9.1 °C 6.7 °F /  -14.1 °C 30.71in /  1039.8hPa North 10.4mph /  16.7km/h   67% 0.00in /  0mm 0.0 W/m2
06:56 15.7 °F /  -9.1 °C 6.7 °F /  -14.1 °C 30.72in /  1040.2hPa North 10.4mph /  16.7km/h   67% 0.00in /  0mm 0.0 W/m2
07:01 15.7 °F /  -9.1 °C 6.7 °F /  -14.1 °C 30.72in /  1040.2hPa North 10.4mph /  16.7km/h   67% 0.00in /  0mm 0.0 W/m2 CLR
07:06 15.7 °F /  -9.1 °C 6.7 °F /  -14.1 °C 30.72in /  1040.2hPa North 10.4mph /  16.7km/h   67% 0.00in /  0mm 0.0 W/m2 CLR
07:17 15.7 °F /  -9.1 °C 6.7 °F /  -14.1 °C 30.73in /  1040.5hPa North 10.4mph /  16.7km/h   67% 0.00in /  0mm 0.0 W/m2 CLR
07:22 15.7 °F /  -9.1 °C 6.7 °F /  -14.1 °C 30.73in /  1040.5hPa North 10.4mph /  16.7km/h   67% 0.00in /  0mm 0.0 W/m2 CLR
07:27 15.7 °F /  -9.1 °C 6.7 °F /  -14.1 °C 30.74in /  1040.9hPa North 10.4mph /  16.7km/h   67% 0.00in /  0mm 0.0 W/m2 CLR
07:32 15.7 °F /  -9.1 °C 6.7 °F /  -14.1 °C 30.74in /  1040.9hPa North 10.4mph /  16.7km/h   67% 0.00in /  0mm 0.0 W/m2 CLR
07:37 15.7 °F /  -9.1 °C 6.7 °F /  -14.1 °C 30.74in /  1040.9hPa North 10.4mph /  16.7km/h   67% 0.00in /  0mm 0.0 W/m2 CLR
07:42 15.7 °F /  -9.1 °C 6.7 °F /  -14.1 °C 30.75in /  1041.2hPa North 10.4mph /  16.7km/h   67% 0.00in /  0mm 0.0 W/m2 CLR
07:47 15.7 °F /  -9.1 °C 6.7 °F /  -14.1 °C 30.75in /  1041.2hPa North 10.4mph /  16.7km/h   67% 0.00in /  0mm 0.0 W/m2 CLR
07:52 15.7 °F /  -9.1 °C 6.7 °F /  -14.1 °C 30.75in /  1041.2hPa North 10.4mph /  16.7km/h   67% 0.00in /  0mm 0.0 W/m2 CLR
07:57 15.7 °F /  -9.1 °C 6.7 °F /  -14.1 °C 30.75in /  1041.2hPa North 10.4mph /  16.7km/h   67% 0.00in /  0mm 0.0 W/m2 CLR
08:02 15.7 °F /  -9.1 °C 6.7 °F /  -14.1 °C 30.75in /  1041.2hPa North 10.4mph /  16.7km/h   67% 0.00in /  0mm 0.0 W/m2 CLR
08:08 15.7 °F /  -9.1 °C 6.7 °F /  -14.1 °C 30.75in /  1041.2hPa North 10.4mph /  16.7km/h   67% 0.00in /  0mm 0.0 W/m2 CLR
08:13 15.7 °F /  -9.1 °C 6.7 °F /  -14.1 °C 30.76in /  1041.5hPa North 10.4mph /  16.7km/h   67% 0.00in /  0mm 0.0 W/m2 CLR
08:20 15.7 °F /  -9.1 °C 6.7 °F /  -14.1 °C 30.76in /  1041.5hPa North 10.4mph /  16.7km/h   67% 0.00in /  0mm 0.0 W/m2 CLR
08:27 15.7 °F /  -9.1 °C 6.7 °F /  -14.1 °C 30.76in /  1041.5hPa North 10.4mph /  16.7km/h   67% 0.00in /  0mm 0.0 W/m2 CLR
08:33 15.7 °F /  -9.1 °C 6.7 °F /  -14.1 °C 30.76in /  1041.5hPa North 10.4mph /  16.7km/h   67% 0.00in /  0mm 0.0 W/m2 CLR
08:41 15.7 °F /  -9.1 °C 6.7 °F /  -14.1 °C 30.77in /  1041.9hPa North 10.4mph /  16.7km/h   67% 0.00in /  0mm 0.0 W/m2 CLR
08:53 15.7 °F /  -9.1 °C 6.7 °F /  -14.1 °C 30.77in /  1041.9hPa North 10.4mph /  16.7km/h   67% 0.00in /  0mm 0.0 W/m2 CLR
09:13 16.6 °F /  -8.6 °C 7.9 °F /  -13.4 °C 30.79in /  1042.5hPa East 10.4mph /  16.7km/h 10.4mph /  16.7km/h 68% 0.00in /  0mm 0.0 W/m2 OVC
09:22 16.8 °F /  -8.4 °C 7.4 °F /  -13.7 °C 30.80in /  1042.9hPa East 10.4mph /  16.7km/h 10.4mph /  16.7km/h 66% 0.00in /  0mm 0.0 W/m2 OVC
09:31 17.4 °F /  -8.1 °C 8.0 °F /  -13.3 °C 30.80in /  1042.9hPa WSW 10.4mph /  16.7km/h 10.4mph /  16.7km/h 66% 0.00in /  0mm 0.0 W/m2 OVC
09:36 18.3 °F /  -7.6 °C 8.5 °F /  -13.1 °C 30.80in /  1042.9hPa South 10.4mph /  16.7km/h 10.4mph /  16.7km/h 65% 0.00in /  0mm 0.0 W/m2 OVC
09:41 18.9 °F /  -7.3 °C 9.1 °F /  -12.7 °C 30.80in /  1042.9hPa ENE 10.4mph /  16.7km/h 10.4mph /  16.7km/h 65% 0.00in /  0mm 0.0 W/m2 OVC
09:46 18.5 °F /  -7.5 °C 8.0 °F /  -13.3 °C 30.81in /  1043.2hPa ENE 10.4mph /  16.7km/h   63% 0.00in /  0mm 0.0 W/m2 OVC
09:51 18.5 °F /  -7.5 °C 8.3 °F /  -13.2 °C 30.81in /  1043.2hPa SE 10.4mph /  16.7km/h 10.4mph /  16.7km/h 64% 0.00in /  0mm 0.0 W/m2 OVC
09:56 18.6 °F /  -7.4 °C 8.8 °F /  -12.9 °C 30.81in /  1043.2hPa South 10.4mph /  16.7km/h 10.4mph /  16.7km/h 65% 0.00in /  0mm 0.0 W/m2 OVC
10:01 18.8 °F /  -7.3 °C 8.6 °F /  -13 °C 30.81in /  1043.2hPa East 10.4mph /  16.7km/h 10.4mph /  16.7km/h 64% 0.00in /  0mm 0.0 W/m2 OVC
10:07 19.2 °F /  -7.1 °C 8.7 °F /  -12.9 °C 30.82in /  1043.6hPa SSW 10.4mph /  16.7km/h 10.4mph /  16.7km/h 63% 0.00in /  0mm 0.0 W/m2 OVC
10:12 19.4 °F /  -7 °C 8.8 °F /  -12.9 °C 30.82in /  1043.6hPa South 10.4mph /  16.7km/h 10.4mph /  16.7km/h 63% 0.00in /  0mm 0.0 W/m2 OVC
10:17 19.7 °F /  -6.8 °C 8.4 °F /  -13.1 °C 30.82in /  1043.6hPa SSE 10.4mph /  16.7km/h 10.4mph /  16.7km/h 61% 0.00in /  0mm 0.0 W/m2 OVC
10:22 19.7 °F /  -6.8 °C 8.4 °F /  -13.1 °C 30.82in /  1043.6hPa SSW 10.4mph /  16.7km/h 10.4mph /  16.7km/h 61% 0.00in /  0mm 0.0 W/m2 OVC
10:27 19.9 °F /  -6.7 °C 8.6 °F /  -13 °C 30.82in /  1043.6hPa WSW 10.4mph /  16.7km/h 10.4mph /  16.7km/h 61% 0.00in /  0mm 0.0 W/m2 OVC
10:32 20.2 °F /  -6.6 °C 8.5 °F /  -13.1 °C 30.82in /  1043.6hPa ESE 10.4mph /  16.7km/h 10.4mph /  16.7km/h 60% 0.00in /  0mm 0.0 W/m2 OVC
10:37 20.8 °F /  -6.2 °C 9.1 °F /  -12.7 °C 30.82in /  1043.6hPa East 10.4mph /  16.7km/h 10.4mph /  16.7km/h 60% 0.00in /  0mm 0.0 W/m2 OVC
10:42 21.7 °F /  -5.7 °C 9.2 °F /  -12.7 °C 30.82in /  1043.6hPa SSW 10.4mph /  16.7km/h 10.4mph /  16.7km/h 58% 0.00in /  0mm 0.0 W/m2 OVC
10:47 22.3 °F /  -5.4 °C 9.4 °F /  -12.6 °C 30.82in /  1043.6hPa SSW 10.4mph /  16.7km/h 10.4mph /  16.7km/h 57% 0.00in /  0mm 0.0 W/m2 OVC
10:52 22.6 °F /  -5.2 °C 8.8 °F /  -12.9 °C 30.82in /  1043.6hPa East 10.4mph /  16.7km/h 10.4mph /  16.7km/h 55% 0.00in /  0mm 0.0 W/m2 OVC
10:57 23.1 °F /  -4.9 °C 9.3 °F /  -12.6 °C 30.81in /  1043.2hPa SW 10.4mph /  16.7km/h 10.4mph /  16.7km/h 55% 0.00in /  0mm 0.0 W/m2 OVC
11:02 23.6 °F /  -4.7 °C 11.0 °F /  -11.7 °C 30.81in /  1043.2hPa ESE 10.4mph /  16.7km/h 10.4mph /  16.7km/h 58% 0.00in /  0mm 0.0 W/m2 OVC
11:12 24.7 °F /  -4.1 °C 9.5 °F /  -12.5 °C 30.81in /  1043.2hPa SSW 10.4mph /  16.7km/h 10.4mph /  16.7km/h 52% 0.00in /  0mm 0.0 W/m2 OVC
11:17 25.2 °F /  -3.8 °C 9.6 °F /  -12.4 °C 30.81in /  1043.2hPa SE 10.4mph /  16.7km/h 10.4mph /  16.7km/h 51% 0.00in /  0mm 0.0 W/m2 OVC
11:22 25.7 °F /  -3.5 °C 9.6 °F /  -12.4 °C 30.81in /  1043.2hPa SSW 10.4mph /  16.7km/h 10.4mph /  16.7km/h 50% 0.00in /  0mm 0.0 W/m2 OVC
11:28 25.8 °F /  -3.4 °C 9.2 °F /  -12.7 °C 30.80in /  1042.9hPa North 10.4mph /  16.7km/h 10.4mph /  16.7km/h 49% 0.00in /  0mm 0.0 W/m2 OVC
11:33 26.3 °F /  -3.2 °C 10.2 °F /  -12.1 °C 30.80in /  1042.9hPa NE 10.4mph /  16.7km/h   50% 0.00in /  0mm 0.0 W/m2 OVC
11:38 26.6 °F /  -3 °C 10.4 °F /  -12 °C 30.80in /  1042.9hPa WSW 10.4mph /  16.7km/h 10.4mph /  16.7km/h 50% 0.00in /  0mm 0.0 W/m2 OVC
11:43 27.2 °F /  -2.7 °C 10.1 °F /  -12.2 °C 30.80in /  1042.9hPa NNE 10.4mph /  16.7km/h   48% 0.00in /  0mm 0.0 W/m2 OVC
11:48 27.5 °F /  -2.5 °C 10.8 °F /  -11.8 °C 30.80in /  1042.9hPa East 10.4mph /  16.7km/h 10.4mph /  16.7km/h 49% 0.00in /  0mm 0.0 W/m2 OVC
11:53 27.0 °F /  -2.8 °C 9.4 °F /  -12.6 °C 30.79in /  1042.5hPa NNE 10.4mph /  16.7km/h 10.4mph /  16.7km/h 47% 0.00in /  0mm 0.0 W/m2 OVC
11:58 27.5 °F /  -2.5 °C 8.4 °F /  -13.1 °C 30.79in /  1042.5hPa East 10.4mph /  16.7km/h 10.4mph /  16.7km/h 44% 0.00in /  0mm 0.0 W/m2 OVC
12:03 27.3 °F /  -2.6 °C 8.2 °F /  -13.2 °C 30.78in /  1042.2hPa ENE 10.4mph /  16.7km/h   44% 0.00in /  0mm 0.0 W/m2 OVC
12:08 27.8 °F /  -2.3 °C 10.2 °F /  -12.1 °C 30.78in /  1042.2hPa SE 10.4mph /  16.7km/h 10.4mph /  16.7km/h 47% 0.00in /  0mm 0.0 W/m2 OVC
12:13 27.9 °F /  -2.3 °C 8.8 °F /  -12.9 °C 30.77in /  1041.9hPa East 10.4mph /  16.7km/h 10.4mph /  16.7km/h 44% 0.00in /  0mm 0.0 W/m2 OVC
12:18 28.3 °F /  -2.1 °C 9.1 °F /  -12.7 °C 30.77in /  1041.9hPa East 10.4mph /  16.7km/h 10.4mph /  16.7km/h 44% 0.00in /  0mm 0.0 W/m2 OVC
12:24 28.5 °F /  -1.9 °C 8.3 °F /  -13.2 °C 30.77in /  1041.9hPa SE 10.4mph /  16.7km/h 10.4mph /  16.7km/h 42% 0.00in /  0mm 0.0 W/m2 OVC
12:29 28.5 °F /  -1.9 °C 9.3 °F /  -12.6 °C 30.77in /  1041.9hPa South 10.4mph /  16.7km/h 10.4mph /  16.7km/h 44% 0.00in /  0mm 0.0 W/m2 OVC
12:34 28.5 °F /  -1.9 °C 7.8 °F /  -13.4 °C 30.76in /  1041.5hPa ENE 10.4mph /  16.7km/h 10.4mph /  16.7km/h 41% 0.00in /  0mm 0.0 W/m2 OVC
12:39 29.2 °F /  -1.6 °C 7.8 °F /  -13.4 °C 30.76in /  1041.5hPa SW 10.4mph /  16.7km/h 10.4mph /  16.7km/h 40% 0.00in /  0mm 0.0 W/m2 OVC
12:44 29.2 °F /  -1.6 °C 7.8 °F /  -13.4 °C 30.76in /  1041.5hPa East 10.4mph /  16.7km/h 10.4mph /  16.7km/h 40% 0.00in /  0mm 0.0 W/m2 OVC
12:49 29.4 °F /  -1.4 °C 8.6 °F /  -13 °C 30.75in /  1041.2hPa SSW 10.4mph /  16.7km/h 10.4mph /  16.7km/h 41% 0.00in /  0mm 0.0 W/m2 OVC
12:54 29.8 °F /  -1.2 °C 8.4 °F /  -13.1 °C 30.75in /  1041.2hPa SE 10.4mph /  16.7km/h 10.4mph /  16.7km/h 40% 0.00in /  0mm 0.0 W/m2 OVC
12:59 29.6 °F /  -1.3 °C 8.2 °F /  -13.2 °C 30.75in /  1041.2hPa ENE 10.4mph /  16.7km/h 10.4mph /  16.7km/h 40% 0.00in /  0mm 0.0 W/m2 OVC
13:04 29.5 °F /  -1.4 °C 7.5 °F /  -13.6 °C 30.74in /  1040.9hPa ENE 10.4mph /  16.7km/h 10.4mph /  16.7km/h 39% 0.00in /  0mm 0.0 W/m2 OVC
13:09 29.7 °F /  -1.3 °C 7.7 °F /  -13.5 °C 30.74in /  1040.9hPa ENE 10.4mph /  16.7km/h 10.4mph /  16.7km/h 39% 0.00in /  0mm 0.0 W/m2 OVC
13:14 29.8 °F /  -1.2 °C 8.9 °F /  -12.8 °C 30.74in /  1040.9hPa SW 10.4mph /  16.7km/h   41% 0.00in /  0mm 0.0 W/m2 OVC
13:19 30.3 °F /  -0.9 °C 9.4 °F /  -12.6 °C 30.74in /  1040.9hPa East 10.4mph /  16.7km/h   41% 0.00in /  0mm 0.0 W/m2 OVC
13:25 30.5 °F /  -0.8 °C 8.4 °F /  -13.1 °C 30.74in /  1040.9hPa South 10.4mph /  16.7km/h 10.4mph /  16.7km/h 39% 0.00in /  0mm 0.0 W/m2 OVC
13:30 30.6 °F /  -0.8 °C 8.5 °F /  -13.1 °C 30.74in /  1040.9hPa SSW 10.4mph /  16.7km/h 10.4mph /  16.7km/h 39% 0.00in /  0mm 0.0 W/m2 OVC
13:35 30.6 °F /  -0.8 °C 8.0 °F /  -13.3 °C 30.74in /  1040.9hPa ESE 10.4mph /  16.7km/h 10.4mph /  16.7km/h 38% 0.00in /  0mm 0.0 W/m2 OVC
13:40 30.9 °F /  -0.6 °C 10.5 °F /  -11.9 °C 30.74in /  1040.9hPa North 10.4mph /  16.7km/h   42% 0.00in /  0mm 0.0 W/m2 OVC
13:45 30.7 °F /  -0.7 °C 8.1 °F /  -13.3 °C 30.74in /  1040.9hPa South 10.4mph /  16.7km/h 10.4mph /  16.7km/h 38% 0.00in /  0mm 0.0 W/m2 OVC
13:50 30.6 °F /  -0.8 °C 8.5 °F /  -13.1 °C 30.74in /  1040.9hPa East 10.4mph /  16.7km/h 10.4mph /  16.7km/h 39% 0.00in /  0mm 0.0 W/m2 OVC
13:55 30.5 °F /  -0.8 °C 9.0 °F /  -12.8 °C 30.74in /  1040.9hPa SE 10.4mph /  16.7km/h 10.4mph /  16.7km/h 40% 0.00in /  0mm 0.0 W/m2 OVC
14:00 30.3 °F /  -0.9 °C 9.4 °F /  -12.6 °C 30.74in /  1040.9hPa ENE 10.4mph /  16.7km/h   41% 0.00in /  0mm 0.0 W/m2 OVC
14:05 30.4 °F /  -0.9 °C 10.5 °F /  -11.9 °C 30.73in /  1040.5hPa SSW 10.4mph /  16.7km/h 10.4mph /  16.7km/h 43% 0.00in /  0mm 0.0 W/m2 OVC
14:10 30.5 °F /  -0.8 °C 7.9 °F /  -13.4 °C 30.73in /  1040.5hPa ENE 10.4mph /  16.7km/h 10.4mph /  16.7km/h 38% 0.00in /  0mm 0.0 W/m2 OVC
14:15 30.3 °F /  -0.9 °C 9.4 °F /  -12.6 °C 30.73in /  1040.5hPa ESE 10.4mph /  16.7km/h 10.4mph /  16.7km/h 41% 0.00in /  0mm 0.0 W/m2 OVC
14:20 30.3 °F /  -0.9 °C 9.4 °F /  -12.6 °C 30.73in /  1040.5hPa South 10.4mph /  16.7km/h   41% 0.00in /  0mm 0.0 W/m2 OVC
14:25 30.3 °F /  -0.9 °C 8.8 °F /  -12.9 °C 30.73in /  1040.5hPa SSW 10.4mph /  16.7km/h 10.4mph /  16.7km/h 40% 0.00in /  0mm 0.0 W/m2 OVC
14:30 30.4 °F /  -0.9 °C 8.4 °F /  -13.1 °C 30.73in /  1040.5hPa ENE 10.4mph /  16.7km/h 10.4mph /  16.7km/h 39% 0.00in /  0mm 0.0 W/m2 OVC
14:35 30.4 °F /  -0.9 °C 8.4 °F /  -13.1 °C 30.73in /  1040.5hPa South 10.4mph /  16.7km/h 10.4mph /  16.7km/h 39% 0.00in /  0mm 0.0 W/m2 OVC
14:40 30.5 °F /  -0.8 °C 10.6 °F /  -11.9 °C 30.73in /  1040.5hPa NNE 10.4mph /  16.7km/h 10.4mph /  16.7km/h 43% 0.00in /  0mm 0.0 W/m2 OVC
14:46 30.7 °F /  -0.7 °C 8.6 °F /  -13 °C 30.73in /  1040.5hPa ENE 10.4mph /  16.7km/h 10.4mph /  16.7km/h 39% 0.00in /  0mm 0.0 W/m2 OVC
14:51 30.6 °F /  -0.8 °C 9.7 °F /  -12.4 °C 30.73in /  1040.5hPa NNW 10.4mph /  16.7km/h   41% 0.00in /  0mm 0.0 W/m2 OVC
14:56 30.6 °F /  -0.8 °C 8.0 °F /  -13.3 °C 30.73in /  1040.5hPa SW 10.4mph /  16.7km/h 10.4mph /  16.7km/h 38% 0.00in /  0mm 0.0 W/m2 OVC
15:01 30.6 °F /  -0.8 °C 8.5 °F /  -13.1 °C 30.73in /  1040.5hPa SE 10.4mph /  16.7km/h 10.4mph /  16.7km/h 39% 0.00in /  0mm 0.0 W/m2 OVC
15:06 30.6 °F /  -0.8 °C 9.1 °F /  -12.7 °C 30.73in /  1040.5hPa ENE 10.4mph /  16.7km/h   40% 0.00in /  0mm 0.0 W/m2 OVC
15:11 30.4 °F /  -0.9 °C 8.4 °F /  -13.1 °C 30.72in /  1040.2hPa SSW 10.4mph /  16.7km/h 10.4mph /  16.7km/h 39% 0.00in /  0mm 0.0 W/m2 OVC
15:16 30.2 °F /  -1 °C 9.8 °F /  -12.3 °C 30.72in /  1040.2hPa SW 10.4mph /  16.7km/h 10.4mph /  16.7km/h 42% 0.00in /  0mm 0.0 W/m2 OVC
15:21 30.4 °F /  -0.9 °C 12.1 °F /  -11.1 °C 30.73in /  1040.5hPa SW 10.4mph /  16.7km/h 10.4mph /  16.7km/h 46% 0.00in /  0mm 0.0 W/m2 OVC
15:26 30.3 °F /  -0.9 °C 9.4 °F /  -12.6 °C 30.72in /  1040.2hPa ESE 10.4mph /  16.7km/h   41% 0.00in /  0mm 0.0 W/m2 OVC
15:31 30.3 °F /  -0.9 °C 8.8 °F /  -12.9 °C 30.72in /  1040.2hPa ESE 10.4mph /  16.7km/h   40% 0.00in /  0mm 0.0 W/m2 OVC
15:36 30.5 °F /  -0.8 °C 9.6 °F /  -12.4 °C 30.73in /  1040.5hPa ENE 10.4mph /  16.7km/h 10.4mph /  16.7km/h 41% 0.00in /  0mm 0.0 W/m2 OVC
15:41 30.5 °F /  -0.8 °C 7.9 °F /  -13.4 °C 30.73in /  1040.5hPa North 10.4mph /  16.7km/h   38% 0.00in /  0mm 0.0 W/m2 OVC
15:46 30.4 °F /  -0.9 °C 9.5 °F /  -12.5 °C 30.73in /  1040.5hPa NNW 10.4mph /  16.7km/h 10.4mph /  16.7km/h 41% 0.00in /  0mm 0.0 W/m2 OVC
15:52 30.3 °F /  -0.9 °C 9.4 °F /  -12.6 °C 30.73in /  1040.5hPa SW 10.4mph /  16.7km/h 10.4mph /  16.7km/h 41% 0.00in /  0mm 0.0 W/m2 OVC
16:02 30.2 °F /  -1 °C 8.2 °F /  -13.2 °C 30.73in /  1040.5hPa NE 10.4mph /  16.7km/h 10.4mph /  16.7km/h 39% 0.00in /  0mm 0.0 W/m2 CLR
16:07 30.1 °F /  -1.1 °C 8.1 °F /  -13.3 °C 30.73in /  1040.5hPa ENE 10.4mph /  16.7km/h 10.4mph /  16.7km/h 39% 0.00in /  0mm 0.0 W/m2 CLR
16:12 29.9 °F /  -1.2 °C 7.9 °F /  -13.4 °C 30.73in /  1040.5hPa NW 10.4mph /  16.7km/h 10.4mph /  16.7km/h 39% 0.00in /  0mm 0.0 W/m2 CLR
16:17 29.7 °F /  -1.3 °C 7.2 °F /  -13.8 °C 30.73in /  1040.5hPa SE 10.4mph /  16.7km/h   38% 0.00in /  0mm 0.0 W/m2 CLR
16:22 29.7 °F /  -1.3 °C 7.7 °F /  -13.5 °C 30.73in /  1040.5hPa North 10.4mph /  16.7km/h   39% 0.00in /  0mm 0.0 W/m2 CLR
16:27 29.7 °F /  -1.3 °C 7.7 °F /  -13.5 °C 30.73in /  1040.5hPa East 10.4mph /  16.7km/h 10.4mph /  16.7km/h 39% 0.00in /  0mm 0.0 W/m2 CLR
16:32 29.7 °F /  -1.3 °C 8.3 °F /  -13.2 °C 30.73in /  1040.5hPa WSW 10.4mph /  16.7km/h 10.4mph /  16.7km/h 40% 0.00in /  0mm 0.0 W/m2 CLR
16:37 29.6 °F /  -1.3 °C 8.2 °F /  -13.2 °C 30.74in /  1040.9hPa East 10.4mph /  16.7km/h   40% 0.00in /  0mm 0.0 W/m2 CLR
16:42 29.4 °F /  -1.4 °C 8.6 °F /  -13 °C 30.74in /  1040.9hPa NW 10.4mph /  16.7km/h   41% 0.00in /  0mm 0.0 W/m2 CLR
16:48 29.4 °F /  -1.4 °C 10.1 °F /  -12.2 °C 30.74in /  1040.9hPa SW 10.4mph /  16.7km/h 10.4mph /  16.7km/h 44% 0.00in /  0mm 0.0 W/m2 CLR
16:53 29.3 °F /  -1.5 °C 8.5 °F /  -13.1 °C 30.74in /  1040.9hPa East 10.4mph /  16.7km/h 10.4mph /  16.7km/h 41% 0.00in /  0mm 0.0 W/m2 CLR
16:58 29.3 °F /  -1.5 °C 9.0 °F /  -12.8 °C 30.74in /  1040.9hPa SSE 10.4mph /  16.7km/h   42% 0.00in /  0mm 0.0 W/m2 CLR
17:03 29.1 °F /  -1.6 °C 8.3 °F /  -13.2 °C 30.74in /  1040.9hPa ENE 10.4mph /  16.7km/h 10.4mph /  16.7km/h 41% 0.00in /  0mm 0.0 W/m2 CLR
17:08 29.1 °F /  -1.6 °C 8.3 °F /  -13.2 °C 30.74in /  1040.9hPa East 10.4mph /  16.7km/h   41% 0.00in /  0mm 0.0 W/m2 CLR
17:13 29.0 °F /  -1.7 °C 10.3 °F /  -12.1 °C 30.74in /  1040.9hPa NNE 10.4mph /  16.7km/h   45% 0.00in /  0mm 0.0 W/m2 CLR
17:18 28.8 °F /  -1.8 °C 9.1 °F /  -12.7 °C 30.74in /  1040.9hPa East 10.4mph /  16.7km/h 10.4mph /  16.7km/h 43% 0.00in /  0mm 0.0 W/m2 CLR
17:23 28.6 °F /  -1.9 °C 9.4 °F /  -12.6 °C 30.74in /  1040.9hPa NE 10.4mph /  16.7km/h 10.4mph /  16.7km/h 44% 0.00in /  0mm 0.0 W/m2 CLR
17:28 28.5 °F /  -1.9 °C 10.3 °F /  -12.1 °C 30.74in /  1040.9hPa North 10.4mph /  16.7km/h   46% 0.00in /  0mm 0.0 W/m2 CLR
17:33 28.3 °F /  -2.1 °C 9.6 °F /  -12.4 °C 30.74in /  1040.9hPa SSW 10.4mph /  16.7km/h 10.4mph /  16.7km/h 45% 0.00in /  0mm 0.0 W/m2 CLR
17:43 28.0 °F /  -2.2 °C 8.9 °F /  -12.8 °C 30.74in /  1040.9hPa North 10.4mph /  16.7km/h   44% 0.00in /  0mm 0.0 W/m2 CLR
17:48 27.8 °F /  -2.3 °C 9.2 °F /  -12.7 °C 30.74in /  1040.9hPa NE 10.4mph /  16.7km/h   45% 0.00in /  0mm 0.0 W/m2 CLR
17:53 27.8 °F /  -2.3 °C 10.2 °F /  -12.1 °C 30.75in /  1041.2hPa ESE 10.4mph /  16.7km/h   47% 0.00in /  0mm 0.0 W/m2 CLR
17:58 27.6 °F /  -2.4 °C 10.4 °F /  -12 °C 30.75in /  1041.2hPa NW 10.4mph /  16.7km/h   48% 0.00in /  0mm 0.0 W/m2 CLR
18:04 27.5 °F /  -2.5 °C 9.4 °F /  -12.6 °C 30.75in /  1041.2hPa SSW 10.4mph /  16.7km/h   46% 0.00in /  0mm 0.0 W/m2
18:09 27.4 °F /  -2.6 °C 9.8 °F /  -12.3 °C 30.75in /  1041.2hPa South 10.4mph /  16.7km/h   47% 0.00in /  0mm 0.0 W/m2
18:14 27.4 °F /  -2.6 °C 9.3 °F /  -12.6 °C 30.75in /  1041.2hPa NW 10.4mph /  16.7km/h   46% 0.00in /  0mm 0.0 W/m2
18:19 27.3 °F /  -2.6 °C 9.2 °F /  -12.7 °C 30.75in /  1041.2hPa NNW 10.4mph /  16.7km/h   46% 0.00in /  0mm 0.0 W/m2
18:24 27.3 °F /  -2.6 °C 9.2 °F /  -12.7 °C 30.75in /  1041.2hPa NNW 10.4mph /  16.7km/h   46% 0.00in /  0mm 0.0 W/m2
18:29 27.3 °F /  -2.6 °C 10.6 °F /  -11.9 °C 30.75in /  1041.2hPa NNW 10.4mph /  16.7km/h   49% 0.00in /  0mm 0.0 W/m2
18:34 27.2 °F /  -2.7 °C 10.5 °F /  -11.9 °C 30.74in /  1040.9hPa NNW 10.4mph /  16.7km/h   49% 0.00in /  0mm 0.0 W/m2
18:39 27.1 °F /  -2.7 °C 9.5 °F /  -12.5 °C 30.75in /  1041.2hPa NNW 10.4mph /  16.7km/h   47% 0.00in /  0mm 0.0 W/m2
18:44 27.2 °F /  -2.7 °C 9.6 °F /  -12.4 °C 30.74in /  1040.9hPa SW 10.4mph /  16.7km/h 10.4mph /  16.7km/h 47% 0.00in /  0mm 0.0 W/m2
18:49 27.1 °F /  -2.7 °C 9.5 °F /  -12.5 °C 30.74in /  1040.9hPa East 10.4mph /  16.7km/h   47% 0.00in /  0mm 0.0 W/m2
18:54 27.1 °F /  -2.7 °C 9.0 °F /  -12.8 °C 30.73in /  1040.5hPa East 10.4mph /  16.7km/h   46% 0.00in /  0mm 0.0 W/m2
18:59 27.0 °F /  -2.8 °C 10.4 °F /  -12 °C 30.73in /  1040.5hPa East 10.4mph /  16.7km/h   49% 0.00in /  0mm 0.0 W/m2
19:04 26.9 °F /  -2.8 °C 9.3 °F /  -12.6 °C 30.73in /  1040.5hPa East 10.4mph /  16.7km/h   47% 0.00in /  0mm 0.0 W/m2
19:10 26.7 °F /  -2.9 °C 10.1 °F /  -12.2 °C 30.72in /  1040.2hPa East 10.4mph /  16.7km/h 10.4mph /  16.7km/h 49% 0.00in /  0mm 0.0 W/m2
19:15 26.7 °F /  -2.9 °C 9.1 °F /  -12.7 °C 30.72in /  1040.2hPa East 10.4mph /  16.7km/h   47% 0.00in /  0mm 0.0 W/m2
19:20 26.6 °F /  -3 °C 10.4 °F /  -12 °C 30.72in /  1040.2hPa East 10.4mph /  16.7km/h   50% 0.00in /  0mm 0.0 W/m2
19:25 26.4 °F /  -3.1 °C 10.3 °F /  -12.1 °C 30.73in /  1040.5hPa East 10.4mph /  16.7km/h   50% 0.00in /  0mm 0.0 W/m2
19:30 26.3 °F /  -3.2 °C 10.2 °F /  -12.1 °C 30.72in /  1040.2hPa East 10.4mph /  16.7km/h   50% 0.00in /  0mm 0.0 W/m2
19:35 26.2 °F /  -3.2 °C 9.6 °F /  -12.4 °C 30.73in /  1040.5hPa East 10.4mph /  16.7km/h   49% 0.00in /  0mm 0.0 W/m2
19:40 26.1 °F /  -3.3 °C 10.9 °F /  -11.7 °C 30.73in /  1040.5hPa East 10.4mph /  16.7km/h   52% 0.00in /  0mm 0.0 W/m2
19:45 25.9 °F /  -3.4 °C 11.1 °F /  -11.6 °C 30.73in /  1040.5hPa East 10.4mph /  16.7km/h   53% 0.00in /  0mm 0.0 W/m2
19:50 25.7 °F /  -3.5 °C 10.9 °F /  -11.7 °C 30.74in /  1040.9hPa East 10.4mph /  16.7km/h   53% 0.00in /  0mm 0.0 W/m2
19:55 25.6 °F /  -3.6 °C 10.8 °F /  -11.8 °C 30.74in /  1040.9hPa East 10.4mph /  16.7km/h   53% 0.00in /  0mm 0.0 W/m2
20:00 25.6 °F /  -3.6 °C 11.2 °F /  -11.6 °C 30.74in /  1040.9hPa East 10.4mph /  16.7km/h   54% 0.00in /  0mm 0.0 W/m2
20:05 25.6 °F /  -3.6 °C 11.7 °F /  -11.3 °C 30.74in /  1040.9hPa East 10.4mph /  16.7km/h   55% 0.00in /  0mm 0.0 W/m2
20:10 25.5 °F /  -3.6 °C 12.4 °F /  -10.9 °C 30.74in /  1040.9hPa East 10.4mph /  16.7km/h   57% 0.00in /  0mm 0.0 W/m2
20:20 25.2 °F /  -3.8 °C 11.7 °F /  -11.3 °C 30.75in /  1041.2hPa North 10.4mph /  16.7km/h   56% 0.00in /  0mm 0.0 W/m2
20:25 25.1 °F /  -3.8 °C 12.4 °F /  -10.9 °C 30.75in /  1041.2hPa North 10.4mph /  16.7km/h   58% 0.00in /  0mm 0.0 W/m2
20:31 25.2 °F /  -3.8 °C 12.1 °F /  -11.1 °C 30.75in /  1041.2hPa North 10.4mph /  16.7km/h   57% 0.00in /  0mm 0.0 W/m2
20:36 25.4 °F /  -3.7 °C 11.5 °F /  -11.4 °C 30.75in /  1041.2hPa North 10.4mph /  16.7km/h   55% 0.00in /  0mm 0.0 W/m2
20:41 25.4 °F /  -3.7 °C 12.3 °F /  -10.9 °C 30.75in /  1041.2hPa North 10.4mph /  16.7km/h   57% 0.00in /  0mm 0.0 W/m2
20:46 25.4 °F /  -3.7 °C 11.5 °F /  -11.4 °C 30.75in /  1041.2hPa North 10.4mph /  16.7km/h   55% 0.00in /  0mm 0.0 W/m2
20:51 25.3 °F /  -3.7 °C 11.8 °F /  -11.2 °C 30.75in /  1041.2hPa North 10.4mph /  16.7km/h   56% 0.00in /  0mm 0.0 W/m2
20:56 25.3 °F /  -3.7 °C 12.2 °F /  -11 °C 30.75in /  1041.2hPa North 10.4mph /  16.7km/h   57% 0.00in /  0mm 0.0 W/m2
21:01 25.3 °F /  -3.7 °C 12.2 °F /  -11 °C 30.75in /  1041.2hPa North 10.4mph /  16.7km/h   57% 0.00in /  0mm 0.0 W/m2
21:06 25.3 °F /  -3.7 °C 11.4 °F /  -11.4 °C 30.75in /  1041.2hPa North 10.4mph /  16.7km/h   55% 0.00in /  0mm 0.0 W/m2
21:11 25.3 °F /  -3.7 °C 11.8 °F /  -11.2 °C 30.75in /  1041.2hPa North 10.4mph /  16.7km/h   56% 0.00in /  0mm 0.0 W/m2
21:16 25.2 °F /  -3.8 °C 11.7 °F /  -11.3 °C 30.75in /  1041.2hPa North 10.4mph /  16.7km/h   56% 0.00in /  0mm 0.0 W/m2
21:21 25.0 °F /  -3.9 °C 12.7 °F /  -10.7 °C 30.76in /  1041.5hPa North 10.4mph /  16.7km/h   59% 0.00in /  0mm 0.0 W/m2
21:26 24.8 °F /  -4 °C 12.1 °F /  -11.1 °C 30.76in /  1041.5hPa North 10.4mph /  16.7km/h   58% 0.00in /  0mm 0.0 W/m2
21:31 24.8 °F /  -4 °C 12.5 °F /  -10.8 °C 30.75in /  1041.2hPa NE 10.4mph /  16.7km/h   59% 0.00in /  0mm 0.0 W/m2
21:42 24.7 °F /  -4.1 °C 12.4 °F /  -10.9 °C 30.74in /  1040.9hPa NNE 10.4mph /  16.7km/h   59% 0.00in /  0mm 0.0 W/m2
21:47 24.6 °F /  -4.1 °C 11.9 °F /  -11.2 °C 30.75in /  1041.2hPa NNE 10.4mph /  16.7km/h   58% 0.00in /  0mm 0.0 W/m2
21:52 24.6 °F /  -4.1 °C 12.3 °F /  -10.9 °C 30.75in /  1041.2hPa NNE 10.4mph /  16.7km/h   59% 0.00in /  0mm 0.0 W/m2
21:57 24.6 °F /  -4.1 °C 11.9 °F /  -11.2 °C 30.75in /  1041.2hPa NNE 10.4mph /  16.7km/h   58% 0.00in /  0mm 0.0 W/m2
22:02 24.7 °F /  -4.1 °C 11.2 °F /  -11.6 °C 30.75in /  1041.2hPa NNE 10.4mph /  16.7km/h   56% 0.00in /  0mm 0.0 W/m2
22:07 24.8 °F /  -4 °C 12.1 °F /  -11.1 °C 30.74in /  1040.9hPa NNE 10.4mph /  16.7km/h   58% 0.00in /  0mm 0.0 W/m2
22:12 24.8 °F /  -4 °C 12.1 °F /  -11.1 °C 30.74in /  1040.9hPa NNE 10.4mph /  16.7km/h   58% 0.00in /  0mm 0.0 W/m2
22:17 24.8 °F /  -4 °C 12.1 °F /  -11.1 °C 30.74in /  1040.9hPa North 10.4mph /  16.7km/h   58% 0.00in /  0mm 0.0 W/m2
22:22 24.9 °F /  -3.9 °C 12.2 °F /  -11 °C 30.75in /  1041.2hPa East 10.4mph /  16.7km/h   58% 0.00in /  0mm 0.0 W/m2
22:27 25.0 °F /  -3.9 °C 12.7 °F /  -10.7 °C 30.74in /  1040.9hPa East 10.4mph /  16.7km/h   59% 0.00in /  0mm 0.0 W/m2
22:33 25.0 °F /  -3.9 °C 13.1 °F /  -10.5 °C 30.74in /  1040.9hPa NNW 10.4mph /  16.7km/h   60% 0.00in /  0mm 0.0 W/m2
22:38 24.9 °F /  -3.9 °C 12.6 °F /  -10.8 °C 30.74in /  1040.9hPa NNW 10.4mph /  16.7km/h   59% 0.00in /  0mm 0.0 W/m2
22:43 24.9 °F /  -3.9 °C 12.2 °F /  -11 °C 30.74in /  1040.9hPa NNW 10.4mph /  16.7km/h 10.4mph /  16.7km/h 58% 0.00in /  0mm 0.0 W/m2
22:48 24.9 °F /  -3.9 °C 12.2 °F /  -11 °C 30.74in /  1040.9hPa NNE 10.4mph /  16.7km/h   58% 0.00in /  0mm 0.0 W/m2
22:53 25.0 °F /  -3.9 °C 11.9 °F /  -11.2 °C 30.74in /  1040.9hPa ENE 10.4mph /  16.7km/h   57% 0.00in /  0mm 0.0 W/m2
22:58 24.9 °F /  -3.9 °C 12.2 °F /  -11 °C 30.74in /  1040.9hPa ENE 10.4mph /  16.7km/h   58% 0.00in /  0mm 0.0 W/m2
23:03 24.9 °F /  -3.9 °C 13.3 °F /  -10.4 °C 30.74in /  1040.9hPa ENE 10.4mph /  16.7km/h   61% 0.00in /  0mm 0.0 W/m2
23:08 24.8 °F /  -4 °C 12.5 °F /  -10.8 °C 30.73in /  1040.5hPa ENE 10.4mph /  16.7km/h   59% 0.00in /  0mm 0.0 W/m2
23:14 24.7 °F /  -4.1 °C 12.4 °F /  -10.9 °C 30.74in /  1040.9hPa ENE 10.4mph /  16.7km/h   59% 0.00in /  0mm 0.0 W/m2
23:19 24.7 °F /  -4.1 °C 12.8 °F /  -10.7 °C 30.74in /  1040.9hPa ENE 10.4mph /  16.7km/h   60% 0.00in /  0mm 0.0 W/m2
23:24 24.6 °F /  -4.1 °C 12.3 °F /  -10.9 °C 30.73in /  1040.5hPa ENE 10.4mph /  16.7km/h   59% 0.00in /  0mm 0.0 W/m2
23:29 24.5 °F /  -4.2 °C 12.2 °F /  -11 °C 30.73in /  1040.5hPa ENE 10.4mph /  16.7km/h   59% 0.00in /  0mm 0.0 W/m2
23:34 24.5 °F /  -4.2 °C 13.0 °F /  -10.6 °C 30.73in /  1040.5hPa ENE 10.4mph /  16.7km/h   61% 0.00in /  0mm 0.0 W/m2
23:39 24.4 °F /  -4.2 °C 12.9 °F /  -10.6 °C 30.74in /  1040.9hPa ENE 10.4mph /  16.7km/h   61% 0.00in /  0mm 0.0 W/m2
23:44 24.4 °F /  -4.2 °C 12.5 °F /  -10.8 °C 30.74in /  1040.9hPa ENE 10.4mph /  16.7km/h   60% 0.00in /  0mm 0.0 W/m2
23:49 24.4 °F /  -4.2 °C 12.1 °F /  -11.1 °C 30.74in /  1040.9hPa ENE 10.4mph /  16.7km/h   59% 0.00in /  0mm 0.0 W/m2
23:54 24.4 °F /  -4.2 °C 12.5 °F /  -10.8 °C 30.74in /  1040.9hPa ENE 10.4mph /  16.7km/h   60% 0.00in /  0mm 0.0 W/m2
Piedmont Bend
Compliments of Weather Underground - 4 mb